Huvudsida
METAR-TAF:

METAR-TAF

Flygplatser :

Yap International Airport

Yap, Mikronesien

latitud: 09-29N, longitud: 138-05E, höjd: 28 m

Aktuellt väderrapport

Denna rapport gjordes för 58 minuter sedan, klockan 22:55 UTC
Vind 7 kt från sydväst
Temperatur 30°C
Fuktighet 75%
Tryck 1008 hPa
Sikt: 19.3 km
Få moln på en höjd av 1600 ft
Spridda moln på en höjd av 13000 ft
Brutna moln på en höjd av 30000 ft

METAR: PTYA 222255Z 23007KT 12SM FEW016 SCT130 BKN300 30/25 A2977 RMK SLP083 T02970248

Tid: 09:53 (23:53 UTC)

Väderprognos

Denna rapport gjordes för 33 minuter sedan, klockan 23:20 UTC
Prognos gäller från 23 kl. 00 UTC till 23 kl. 24 UTC
Vind 7 kt från sydväst
Sikt: 10 km
Spridda moln på en höjd av 1600 ft
Spridda moln på en höjd av 13000 ft
Brutna moln på en höjd av 30000 ft
skurar i närheten

TAF: PTYA 222320Z 2300/2324 23007KT P6SM VCSH SCT016 SCT130 BKN300

Aktuella väderrapporter och prognoser från 4000 flygplatser (METAR- och TAF-rapporter).

De tillgängliga stationerna syns som gula och röda prickar på kartan.

För musen över prickarna för att se namnen på stationerna.

Klicka sedan för att få väderrapporter och prognoser.

För att ändra kartan: Klicka på de gröna knapparna med ett svart kors på för att zooma in; den gröna knappen med ett streck på för att zooma ut; eller på de gröna pilarna för angränsande kartor.


METAR-TAF: